sensor_id;sensor_type;location;lat;lon;timestamp;P1;durP1;ratioP1;P2;durP2;ratioP2
53781;SDS011;39692;53.114;7.060;2022-07-23T00:00:09;4.72;;;3.83;;
53781;SDS011;39692;53.114;7.060;2022-07-23T00:02:35;7.28;;;3.80;;
53781;SDS011;39692;53.114;7.060;2022-07-23T00:05:01;5.03;;;3.95;;
53781;SDS011;39692;53.114;7.060;2022-07-23T00:07:26;4.57;;;3.47;;
53781;SDS011;39692;53.114;7.060;2022-07-23T00:09:52;3.95;;;3.20;;
53781;SDS011;39692;53.114;7.060;2022-07-23T00:12:18;7.57;;;3.95;;
53781;SDS011;39692;53.114;7.060;2022-07-23T00:14:43;7.45;;;4.38;;
53781;SDS011;39692;53.114;7.060;2022-07-23T00:17:09;7.25;;;4.50;;
53781;SDS011;39692;53.114;7.060;2022-07-23T00:19:35;5.35;;;3.95;;
53781;SDS011;39692;53.114;7.060;2022-07-23T00:22:01;5.65;;;3.90;;
53781;SDS011;39692;53.114;7.060;2022-07-23T00:24:26;5.35;;;4.47;;
53781;SDS011;39692;53.114;7.060;2022-07-23T00:26:52;4.90;;;3.80;;
53781;SDS011;39692;53.114;7.060;2022-07-23T00:29:18;7.38;;;4.13;;
53781;SDS011;39692;53.114;7.060;2022-07-23T00:31:43;7.53;;;4.22;;
53781;SDS011;39692;53.114;7.060;2022-07-23T00:34:09;7.43;;;4.20;;
53781;SDS011;39692;53.114;7.060;2022-07-23T00:36:35;5.70;;;4.25;;
53781;SDS011;39692;53.114;7.060;2022-07-23T00:39:00;7.43;;;4.35;;
53781;SDS011;39692;53.114;7.060;2022-07-23T00:41:26;6.38;;;4.25;;
53781;SDS011;39692;53.114;7.060;2022-07-23T00:43:52;6.68;;;4.35;;
53781;SDS011;39692;53.114;7.060;2022-07-23T00:46:23;5.32;;;4.45;;
53781;SDS011;39692;53.114;7.060;2022-07-23T00:48:50;5.28;;;4.00;;
53781;SDS011;39692;53.114;7.060;2022-07-23T00:51:15;6.63;;;4.32;;
53781;SDS011;39692;53.114;7.060;2022-07-23T00:53:42;7.68;;;4.55;;
53781;SDS011;39692;53.114;7.060;2022-07-23T00:56:08;6.70;;;4.10;;
53781;SDS011;39692;53.114;7.060;2022-07-23T00:58:35;6.72;;;4.38;;
53781;SDS011;39692;53.114;7.060;2022-07-23T01:01:00;6.38;;;4.35;;
53781;SDS011;39692;53.114;7.060;2022-07-23T01:03:26;8.48;;;4.32;;
53781;SDS011;39692;53.114;7.060;2022-07-23T01:05:53;6.55;;;4.38;;
53781;SDS011;39692;53.114;7.060;2022-07-23T01:08:19;6.70;;;5.03;;
53781;SDS011;39692;53.114;7.060;2022-07-23T01:10:46;6.05;;;4.38;;
53781;SDS011;39692;53.114;7.060;2022-07-23T01:13:13;6.57;;;4.80;;
53781;SDS011;39692;53.114;7.060;2022-07-23T01:15:39;6.95;;;4.65;;
53781;SDS011;39692;53.114;7.060;2022-07-23T01:18:05;6.20;;;4.80;;
53781;SDS011;39692;53.114;7.060;2022-07-23T01:20:31;7.47;;;4.88;;
53781;SDS011;39692;53.114;7.060;2022-07-23T01:22:58;6.72;;;4.35;;
53781;SDS011;39692;53.114;7.060;2022-07-23T01:25:24;5.57;;;4.38;;
53781;SDS011;39692;53.114;7.060;2022-07-23T01:27:51;6.57;;;4.65;;
53781;SDS011;39692;53.114;7.060;2022-07-23T01:30:18;5.20;;;4.25;;
53781;SDS011;39692;53.114;7.060;2022-07-23T01:32:44;6.13;;;3.60;;
53781;SDS011;39692;53.114;7.060;2022-07-23T01:35:10;7.82;;;4.55;;
53781;SDS011;39692;53.114;7.060;2022-07-23T01:37:36;5.90;;;4.22;;
53781;SDS011;39692;53.114;7.060;2022-07-23T01:40:03;5.68;;;4.43;;
53781;SDS011;39692;53.114;7.060;2022-07-23T01:42:29;6.05;;;3.97;;
53781;SDS011;39692;53.114;7.060;2022-07-23T01:44:55;5.22;;;4.07;;
53781;SDS011;39692;53.114;7.060;2022-07-23T01:47:21;6.28;;;4.28;;
53781;SDS011;39692;53.114;7.060;2022-07-23T01:49:46;7.78;;;4.07;;
53781;SDS011;39692;53.114;7.060;2022-07-23T01:52:12;5.93;;;4.40;;
53781;SDS011;39692;53.114;7.060;2022-07-23T01:54:38;6.78;;;4.03;;
53781;SDS011;39692;53.114;7.060;2022-07-23T01:57:05;5.82;;;4.20;;
53781;SDS011;39692;53.114;7.060;2022-07-23T01:59:31;6.25;;;4.35;;
53781;SDS011;39692;53.114;7.060;2022-07-23T02:01:57;7.80;;;4.47;;
53781;SDS011;39692;53.114;7.060;2022-07-23T02:04:23;4.65;;;3.85;;
53781;SDS011;39692;53.114;7.060;2022-07-23T02:06:49;5.70;;;4.07;;
53781;SDS011;39692;53.114;7.060;2022-07-23T02:09:15;7.18;;;4.72;;
53781;SDS011;39692;53.114;7.060;2022-07-23T02:11:41;8.35;;;4.82;;
53781;SDS011;39692;53.114;7.060;2022-07-23T02:14:07;10.95;;;4.63;;
53781;SDS011;39692;53.114;7.060;2022-07-23T02:16:33;5.53;;;4.15;;
53781;SDS011;39692;53.114;7.060;2022-07-23T02:18:58;6.90;;;3.30;;
53781;SDS011;39692;53.114;7.060;2022-07-23T02:21:24;4.90;;;3.03;;
53781;SDS011;39692;53.114;7.060;2022-07-23T02:23:50;4.85;;;3.47;;
53781;SDS011;39692;53.114;7.060;2022-07-23T02:26:16;5.30;;;3.70;;
53781;SDS011;39692;53.114;7.060;2022-07-23T02:28:41;6.38;;;4.18;;
53781;SDS011;39692;53.114;7.060;2022-07-23T02:31:07;6.15;;;4.32;;
53781;SDS011;39692;53.114;7.060;2022-07-23T02:33:33;6.22;;;4.88;;
53781;SDS011;39692;53.114;7.060;2022-07-23T02:35:59;9.23;;;5.28;;
53781;SDS011;39692;53.114;7.060;2022-07-23T02:38:25;5.13;;;3.22;;
53781;SDS011;39692;53.114;7.060;2022-07-23T02:40:51;4.72;;;3.05;;
53781;SDS011;39692;53.114;7.060;2022-07-23T02:43:16;5.25;;;3.15;;
53781;SDS011;39692;53.114;7.060;2022-07-23T02:45:42;11.77;;;3.58;;
53781;SDS011;39692;53.114;7.060;2022-07-23T02:48:08;5.90;;;3.58;;
53781;SDS011;39692;53.114;7.060;2022-07-23T02:50:33;5.68;;;4.47;;
53781;SDS011;39692;53.114;7.060;2022-07-23T02:52:59;6.10;;;4.13;;
53781;SDS011;39692;53.114;7.060;2022-07-23T02:55:25;6.45;;;3.95;;
53781;SDS011;39692;53.114;7.060;2022-07-23T02:57:51;5.65;;;4.18;;
53781;SDS011;39692;53.114;7.060;2022-07-23T03:00:17;5.28;;;4.78;;
53781;SDS011;39692;53.114;7.060;2022-07-23T03:02:43;7.03;;;4.97;;
53781;SDS011;39692;53.114;7.060;2022-07-23T03:05:09;7.78;;;5.38;;
53781;SDS011;39692;53.114;7.060;2022-07-23T03:07:35;5.97;;;4.60;;
53781;SDS011;39692;53.114;7.060;2022-07-23T03:10:01;7.43;;;5.00;;
53781;SDS011;39692;53.114;7.060;2022-07-23T03:12:27;7.72;;;5.40;;
53781;SDS011;39692;53.114;7.060;2022-07-23T03:14:53;7.60;;;5.00;;
53781;SDS011;39692;53.114;7.060;2022-07-23T03:17:19;6.63;;;4.97;;
53781;SDS011;39692;53.114;7.060;2022-07-23T03:19:44;6.55;;;4.70;;
53781;SDS011;39692;53.114;7.060;2022-07-23T03:22:10;6.30;;;4.20;;
53781;SDS011;39692;53.114;7.060;2022-07-23T03:24:36;5.65;;;4.05;;
53781;SDS011;39692;53.114;7.060;2022-07-23T03:27:20;6.35;;;2.85;;
53781;SDS011;39692;53.114;7.060;2022-07-23T03:29:46;2.97;;;2.22;;
53781;SDS011;39692;53.114;7.060;2022-07-23T03:32:12;4.43;;;3.13;;
53781;SDS011;39692;53.114;7.060;2022-07-23T03:34:38;5.80;;;3.92;;
53781;SDS011;39692;53.114;7.060;2022-07-23T03:37:03;7.50;;;4.35;;
53781;SDS011;39692;53.114;7.060;2022-07-23T03:39:29;7.25;;;3.28;;
53781;SDS011;39692;53.114;7.060;2022-07-23T03:41:55;5.30;;;3.40;;
53781;SDS011;39692;53.114;7.060;2022-07-23T03:44:21;5.10;;;3.97;;
53781;SDS011;39692;53.114;7.060;2022-07-23T03:46:46;7.60;;;4.20;;
53781;SDS011;39692;53.114;7.060;2022-07-23T03:49:12;5.80;;;4.55;;
53781;SDS011;39692;53.114;7.060;2022-07-23T03:51:38;4.63;;;3.28;;
53781;SDS011;39692;53.114;7.060;2022-07-23T03:54:03;5.65;;;4.15;;
53781;SDS011;39692;53.114;7.060;2022-07-23T03:56:29;4.53;;;3.67;;
53781;SDS011;39692;53.114;7.060;2022-07-23T03:58:55;8.57;;;4.70;;
53781;SDS011;39692;53.114;7.060;2022-07-23T04:01:21;6.60;;;4.10;;
53781;SDS011;39692;53.114;7.060;2022-07-23T04:03:47;5.75;;;4.35;;
53781;SDS011;39692;53.114;7.060;2022-07-23T04:06:12;6.47;;;5.15;;
53781;SDS011;39692;53.114;7.060;2022-07-23T04:08:38;7.03;;;4.65;;
53781;SDS011;39692;53.114;7.060;2022-07-23T04:11:04;6.72;;;5.00;;
53781;SDS011;39692;53.114;7.060;2022-07-23T04:13:29;9.10;;;5.25;;
53781;SDS011;39692;53.114;7.060;2022-07-23T04:15:57;5.55;;;4.68;;
53781;SDS011;39692;53.114;7.060;2022-07-23T04:18:23;6.95;;;4.70;;
53781;SDS011;39692;53.114;7.060;2022-07-23T04:20:50;6.63;;;5.07;;
53781;SDS011;39692;53.114;7.060;2022-07-23T04:23:16;7.20;;;5.03;;
53781;SDS011;39692;53.114;7.060;2022-07-23T04:25:43;6.63;;;5.38;;
53781;SDS011;39692;53.114;7.060;2022-07-23T04:28:08;6.55;;;4.97;;
53781;SDS011;39692;53.114;7.060;2022-07-23T04:30:34;8.73;;;4.90;;
53781;SDS011;39692;53.114;7.060;2022-07-23T04:33:00;8.48;;;5.15;;
53781;SDS011;39692;53.114;7.060;2022-07-23T04:35:26;7.57;;;5.22;;
53781;SDS011;39692;53.114;7.060;2022-07-23T04:37:52;9.05;;;5.80;;
53781;SDS011;39692;53.114;7.060;2022-07-23T04:40:17;7.45;;;5.80;;
53781;SDS011;39692;53.114;7.060;2022-07-23T04:42:43;8.25;;;5.70;;
53781;SDS011;39692;53.114;7.060;2022-07-23T04:45:09;8.77;;;6.03;;
53781;SDS011;39692;53.114;7.060;2022-07-23T04:47:35;8.85;;;5.40;;
53781;SDS011;39692;53.114;7.060;2022-07-23T04:50:00;6.85;;;5.40;;
53781;SDS011;39692;53.114;7.060;2022-07-23T04:52:26;8.55;;;5.97;;
53781;SDS011;39692;53.114;7.060;2022-07-23T04:54:52;9.43;;;5.63;;
53781;SDS011;39692;53.114;7.060;2022-07-23T04:57:17;10.25;;;5.60;;
53781;SDS011;39692;53.114;7.060;2022-07-23T04:59:43;7.22;;;5.32;;
53781;SDS011;39692;53.114;7.060;2022-07-23T05:02:09;10.60;;;5.72;;
53781;SDS011;39692;53.114;7.060;2022-07-23T05:04:34;6.65;;;5.28;;
53781;SDS011;39692;53.114;7.060;2022-07-23T05:07:00;8.65;;;5.22;;
53781;SDS011;39692;53.114;7.060;2022-07-23T05:09:25;8.00;;;5.60;;
53781;SDS011;39692;53.114;7.060;2022-07-23T05:11:51;7.82;;;5.45;;
53781;SDS011;39692;53.114;7.060;2022-07-23T05:14:17;7.55;;;5.28;;
53781;SDS011;39692;53.114;7.060;2022-07-23T05:16:43;9.70;;;6.32;;
53781;SDS011;39692;53.114;7.060;2022-07-23T05:19:08;12.85;;;6.20;;
53781;SDS011;39692;53.114;7.060;2022-07-23T05:21:34;11.98;;;6.45;;
53781;SDS011;39692;53.114;7.060;2022-07-23T05:24:00;10.75;;;6.00;;
53781;SDS011;39692;53.114;7.060;2022-07-23T05:26:25;9.73;;;5.90;;
53781;SDS011;39692;53.114;7.060;2022-07-23T05:28:51;9.45;;;5.90;;
53781;SDS011;39692;53.114;7.060;2022-07-23T05:31:17;12.30;;;5.45;;
53781;SDS011;39692;53.114;7.060;2022-07-23T05:33:43;7.28;;;5.03;;
53781;SDS011;39692;53.114;7.060;2022-07-23T05:36:09;8.23;;;5.43;;
53781;SDS011;39692;53.114;7.060;2022-07-23T05:38:35;10.45;;;6.43;;
53781;SDS011;39692;53.114;7.060;2022-07-23T05:41:01;8.18;;;6.50;;
53781;SDS011;39692;53.114;7.060;2022-07-23T05:43:27;10.77;;;5.82;;
53781;SDS011;39692;53.114;7.060;2022-07-23T05:45:53;9.45;;;5.95;;
53781;SDS011;39692;53.114;7.060;2022-07-23T05:48:19;7.10;;;5.05;;
53781;SDS011;39692;53.114;7.060;2022-07-23T05:50:45;7.68;;;5.05;;
53781;SDS011;39692;53.114;7.060;2022-07-23T05:53:12;6.63;;;4.80;;
53781;SDS011;39692;53.114;7.060;2022-07-23T05:55:38;8.30;;;5.05;;
53781;SDS011;39692;53.114;7.060;2022-07-23T05:58:04;7.47;;;5.18;;
53781;SDS011;39692;53.114;7.060;2022-07-23T06:00:29;11.02;;;4.72;;
53781;SDS011;39692;53.114;7.060;2022-07-23T06:02:55;7.53;;;5.30;;
53781;SDS011;39692;53.114;7.060;2022-07-23T06:05:21;6.68;;;4.80;;
53781;SDS011;39692;53.114;7.060;2022-07-23T06:07:47;7.32;;;4.78;;
53781;SDS011;39692;53.114;7.060;2022-07-23T06:10:13;9.43;;;4.88;;
53781;SDS011;39692;53.114;7.060;2022-07-23T06:12:39;7.47;;;4.30;;
53781;SDS011;39692;53.114;7.060;2022-07-23T06:15:05;7.35;;;4.60;;
53781;SDS011;39692;53.114;7.060;2022-07-23T06:17:31;7.07;;;5.03;;
53781;SDS011;39692;53.114;7.060;2022-07-23T06:19:56;8.27;;;4.85;;
53781;SDS011;39692;53.114;7.060;2022-07-23T06:22:22;5.75;;;4.35;;
53781;SDS011;39692;53.114;7.060;2022-07-23T06:24:48;6.32;;;4.18;;
53781;SDS011;39692;53.114;7.060;2022-07-23T06:27:15;6.72;;;3.70;;
53781;SDS011;39692;53.114;7.060;2022-07-23T06:29:41;9.40;;;3.58;;
53781;SDS011;39692;53.114;7.060;2022-07-23T06:32:07;4.90;;;3.17;;
53781;SDS011;39692;53.114;7.060;2022-07-23T06:34:33;7.75;;;3.60;;
53781;SDS011;39692;53.114;7.060;2022-07-23T06:36:59;5.75;;;3.40;;
53781;SDS011;39692;53.114;7.060;2022-07-23T06:39:25;4.85;;;3.22;;
53781;SDS011;39692;53.114;7.060;2022-07-23T06:41:51;5.63;;;3.35;;
53781;SDS011;39692;53.114;7.060;2022-07-23T06:44:17;3.47;;;2.63;;
53781;SDS011;39692;53.114;7.060;2022-07-23T06:46:43;8.70;;;3.33;;
53781;SDS011;39692;53.114;7.060;2022-07-23T06:49:09;6.05;;;2.60;;
53781;SDS011;39692;53.114;7.060;2022-07-23T06:51:35;6.75;;;3.13;;
53781;SDS011;39692;53.114;7.060;2022-07-23T06:54:01;5.22;;;2.67;;
53781;SDS011;39692;53.114;7.060;2022-07-23T06:56:27;4.28;;;2.30;;
53781;SDS011;39692;53.114;7.060;2022-07-23T06:58:53;4.97;;;2.38;;
53781;SDS011;39692;53.114;7.060;2022-07-23T07:01:19;4.18;;;2.65;;
53781;SDS011;39692;53.114;7.060;2022-07-23T07:03:44;6.95;;;3.17;;
53781;SDS011;39692;53.114;7.060;2022-07-23T07:06:10;4.78;;;2.50;;
53781;SDS011;39692;53.114;7.060;2022-07-23T07:08:35;6.28;;;2.72;;
53781;SDS011;39692;53.114;7.060;2022-07-23T07:11:01;3.97;;;2.30;;
53781;SDS011;39692;53.114;7.060;2022-07-23T07:13:28;3.72;;;2.08;;
53781;SDS011;39692;53.114;7.060;2022-07-23T07:15:53;4.07;;;2.17;;
53781;SDS011;39692;53.114;7.060;2022-07-23T07:18:19;4.35;;;2.25;;
53781;SDS011;39692;53.114;7.060;2022-07-23T07:20:45;3.78;;;1.77;;
53781;SDS011;39692;53.114;7.060;2022-07-23T07:23:11;2.80;;;1.85;;
53781;SDS011;39692;53.114;7.060;2022-07-23T07:25:37;4.97;;;2.47;;
53781;SDS011;39692;53.114;7.060;2022-07-23T07:28:03;4.90;;;2.13;;
53781;SDS011;39692;53.114;7.060;2022-07-23T07:30:29;2.92;;;1.67;;
53781;SDS011;39692;53.114;7.060;2022-07-23T07:32:55;4.28;;;1.63;;
53781;SDS011;39692;53.114;7.060;2022-07-23T07:35:20;5.30;;;1.92;;
53781;SDS011;39692;53.114;7.060;2022-07-23T07:37:46;2.78;;;1.55;;
53781;SDS011;39692;53.114;7.060;2022-07-23T07:40:12;4.75;;;1.55;;
53781;SDS011;39692;53.114;7.060;2022-07-23T07:42:47;2.28;;;1.27;;
53781;SDS011;39692;53.114;7.060;2022-07-23T07:45:13;3.78;;;1.20;;
53781;SDS011;39692;53.114;7.060;2022-07-23T07:47:40;3.47;;;1.50;;
53781;SDS011;39692;53.114;7.060;2022-07-23T07:50:06;2.28;;;1.30;;
53781;SDS011;39692;53.114;7.060;2022-07-23T07:52:33;5.38;;;1.30;;
53781;SDS011;39692;53.114;7.060;2022-07-23T07:55:01;4.18;;;1.30;;
53781;SDS011;39692;53.114;7.060;2022-07-23T07:57:29;3.58;;;1.20;;
53781;SDS011;39692;53.114;7.060;2022-07-23T07:59:55;2.50;;;1.10;;
53781;SDS011;39692;53.114;7.060;2022-07-23T08:02:20;3.05;;;1.20;;
53781;SDS011;39692;53.114;7.060;2022-07-23T08:04:46;2.75;;;1.10;;
53781;SDS011;39692;53.114;7.060;2022-07-23T08:07:12;2.70;;;0.70;;
53781;SDS011;39692;53.114;7.060;2022-07-23T08:09:38;2.20;;;0.60;;
53781;SDS011;39692;53.114;7.060;2022-07-23T08:12:03;1.30;;;0.68;;
53781;SDS011;39692;53.114;7.060;2022-07-23T08:14:29;1.45;;;0.50;;
53781;SDS011;39692;53.114;7.060;2022-07-23T08:16:55;1.45;;;0.70;;
53781;SDS011;39692;53.114;7.060;2022-07-23T08:19:20;1.48;;;0.52;;
53781;SDS011;39692;53.114;7.060;2022-07-23T08:21:46;1.05;;;0.47;;
53781;SDS011;39692;53.114;7.060;2022-07-23T08:24:12;0.85;;;0.50;;
53781;SDS011;39692;53.114;7.060;2022-07-23T08:26:38;1.38;;;0.68;;
53781;SDS011;39692;53.114;7.060;2022-07-23T08:29:03;1.55;;;0.65;;
53781;SDS011;39692;53.114;7.060;2022-07-23T08:31:29;1.48;;;0.63;;
53781;SDS011;39692;53.114;7.060;2022-07-23T08:33:55;0.50;;;0.40;;
53781;SDS011;39692;53.114;7.060;2022-07-23T08:36:22;1.60;;;0.60;;
53781;SDS011;39692;53.114;7.060;2022-07-23T08:38:47;0.60;;;0.30;;
53781;SDS011;39692;53.114;7.060;2022-07-23T08:41:13;1.67;;;0.63;;
53781;SDS011;39692;53.114;7.060;2022-07-23T08:43:41;3.03;;;0.80;;
53781;SDS011;39692;53.114;7.060;2022-07-23T08:46:08;1.33;;;0.32;;
53781;SDS011;39692;53.114;7.060;2022-07-23T08:48:34;1.52;;;0.50;;
53781;SDS011;39692;53.114;7.060;2022-07-23T08:51:04;1.50;;;0.40;;
53781;SDS011;39692;53.114;7.060;2022-07-23T08:53:31;1.52;;;0.50;;
53781;SDS011;39692;53.114;7.060;2022-07-23T08:55:58;1.23;;;0.68;;
53781;SDS011;39692;53.114;7.060;2022-07-23T08:58:26;1.35;;;0.40;;
53781;SDS011;39692;53.114;7.060;2022-07-23T09:00:52;1.60;;;0.47;;
53781;SDS011;39692;53.114;7.060;2022-07-23T09:03:25;1.65;;;0.50;;
53781;SDS011;39692;53.114;7.060;2022-07-23T09:05:52;1.13;;;0.38;;
53781;SDS011;39692;53.114;7.060;2022-07-23T09:08:19;1.25;;;0.40;;
53781;SDS011;39692;53.114;7.060;2022-07-23T09:10:48;0.82;;;0.45;;
53781;SDS011;39692;53.114;7.060;2022-07-23T09:15:53;1.58;;;0.60;;
53781;SDS011;39692;53.114;7.060;2022-07-23T09:18:27;2.05;;;0.50;;
53781;SDS011;39692;53.114;7.060;2022-07-23T09:23:19;1.63;;;0.77;;
53781;SDS011;39692;53.114;7.060;2022-07-23T09:25:45;1.20;;;0.60;;
53781;SDS011;39692;53.114;7.060;2022-07-23T09:28:11;2.17;;;0.50;;
53781;SDS011;39692;53.114;7.060;2022-07-23T09:30:40;1.25;;;0.47;;
53781;SDS011;39692;53.114;7.060;2022-07-23T09:33:14;1.17;;;0.40;;
53781;SDS011;39692;53.114;7.060;2022-07-23T09:35:50;1.85;;;0.40;;
53781;SDS011;39692;53.114;7.060;2022-07-23T09:38:17;1.73;;;0.47;;
53781;SDS011;39692;53.114;7.060;2022-07-23T09:40:44;2.20;;;0.70;;
53781;SDS011;39692;53.114;7.060;2022-07-23T09:43:11;5.05;;;1.00;;
53781;SDS011;39692;53.114;7.060;2022-07-23T09:45:37;1.55;;;0.60;;
53781;SDS011;39692;53.114;7.060;2022-07-23T09:48:11;1.83;;;0.52;;
53781;SDS011;39692;53.114;7.060;2022-07-23T09:50:38;1.05;;;0.55;;
53781;SDS011;39692;53.114;7.060;2022-07-23T09:53:04;2.65;;;0.70;;
53781;SDS011;39692;53.114;7.060;2022-07-23T09:55:31;2.75;;;0.77;;
53781;SDS011;39692;53.114;7.060;2022-07-23T09:58:06;1.63;;;0.60;;
53781;SDS011;39692;53.114;7.060;2022-07-23T10:00:37;1.27;;;0.50;;
53781;SDS011;39692;53.114;7.060;2022-07-23T10:03:03;2.42;;;0.65;;
53781;SDS011;39692;53.114;7.060;2022-07-23T10:05:32;1.30;;;0.70;;
53781;SDS011;39692;53.114;7.060;2022-07-23T10:08:01;3.40;;;0.80;;
53781;SDS011;39692;53.114;7.060;2022-07-23T10:10:28;2.40;;;0.90;;
53781;SDS011;39692;53.114;7.060;2022-07-23T10:12:55;1.45;;;0.77;;
53781;SDS011;39692;53.114;7.060;2022-07-23T10:15:40;1.15;;;0.70;;
53781;SDS011;39692;53.114;7.060;2022-07-23T10:18:07;3.08;;;1.00;;
53781;SDS011;39692;53.114;7.060;2022-07-23T10:20:36;3.00;;;0.85;;
53781;SDS011;39692;53.114;7.060;2022-07-23T10:23:05;1.38;;;0.60;;
53781;SDS011;39692;53.114;7.060;2022-07-23T10:25:39;1.77;;;0.50;;
53781;SDS011;39692;53.114;7.060;2022-07-23T10:28:11;2.03;;;0.77;;
53781;SDS011;39692;53.114;7.060;2022-07-23T10:35:52;1.45;;;0.57;;
53781;SDS011;39692;53.114;7.060;2022-07-23T10:38:21;1.35;;;0.45;;
53781;SDS011;39692;53.114;7.060;2022-07-23T10:41:07;1.15;;;0.50;;
53781;SDS011;39692;53.114;7.060;2022-07-23T10:43:33;4.50;;;0.70;;
53781;SDS011;39692;53.114;7.060;2022-07-23T10:48:44;1.40;;;0.73;;
53781;SDS011;39692;53.114;7.060;2022-07-23T10:51:11;1.58;;;0.70;;
53781;SDS011;39692;53.114;7.060;2022-07-23T10:57:04;0.77;;;0.60;;
53781;SDS011;39692;53.114;7.060;2022-07-23T10:59:03;1.23;;;0.80;;
53781;SDS011;39692;53.114;7.060;2022-07-23T11:03:59;2.60;;;0.95;;
53781;SDS011;39692;53.114;7.060;2022-07-23T11:09:29;1.38;;;0.68;;
53781;SDS011;39692;53.114;7.060;2022-07-23T11:25:10;2.40;;;1.00;;
53781;SDS011;39692;53.114;7.060;2022-07-23T11:27:43;2.30;;;0.70;;
53781;SDS011;39692;53.114;7.060;2022-07-23T11:30:10;2.70;;;0.77;;
53781;SDS011;39692;53.114;7.060;2022-07-23T11:32:38;3.05;;;0.80;;
53781;SDS011;39692;53.114;7.060;2022-07-23T11:35:26;2.05;;;0.82;;
53781;SDS011;39692;53.114;7.060;2022-07-23T11:37:51;2.53;;;0.90;;
53781;SDS011;39692;53.114;7.060;2022-07-23T11:40:19;4.07;;;1.02;;
53781;SDS011;39692;53.114;7.060;2022-07-23T11:42:52;2.70;;;1.05;;
53781;SDS011;39692;53.114;7.060;2022-07-23T11:45:19;2.38;;;0.90;;
53781;SDS011;39692;53.114;7.060;2022-07-23T11:47:45;2.80;;;1.00;;
53781;SDS011;39692;53.114;7.060;2022-07-23T11:50:11;4.70;;;1.23;;
53781;SDS011;39692;53.114;7.060;2022-07-23T11:52:38;2.22;;;1.00;;
53781;SDS011;39692;53.114;7.060;2022-07-23T11:55:10;3.08;;;1.20;;
53781;SDS011;39692;53.114;7.060;2022-07-23T11:57:40;2.28;;;0.90;;
53781;SDS011;39692;53.114;7.060;2022-07-23T12:00:07;1.83;;;0.93;;
53781;SDS011;39692;53.114;7.060;2022-07-23T12:02:37;2.67;;;1.13;;
53781;SDS011;39692;53.114;7.060;2022-07-23T12:05:04;3.33;;;1.20;;
53781;SDS011;39692;53.114;7.060;2022-07-23T12:07:39;1.83;;;1.05;;
53781;SDS011;39692;53.114;7.060;2022-07-23T12:10:10;3.33;;;1.27;;
53781;SDS011;39692;53.114;7.060;2022-07-23T12:12:43;1.98;;;1.00;;
53781;SDS011;39692;53.114;7.060;2022-07-23T12:15:10;3.47;;;1.00;;
53781;SDS011;39692;53.114;7.060;2022-07-23T12:17:37;1.30;;;0.80;;
53781;SDS011;39692;53.114;7.060;2022-07-23T12:20:05;3.40;;;1.10;;
53781;SDS011;39692;53.114;7.060;2022-07-23T12:22:35;3.22;;;1.10;;
53781;SDS011;39692;53.114;7.060;2022-07-23T12:25:09;1.70;;;0.95;;
53781;SDS011;39692;53.114;7.060;2022-07-23T12:27:36;1.70;;;1.20;;
53781;SDS011;39692;53.114;7.060;2022-07-23T12:30:18;2.55;;;1.27;;
53781;SDS011;39692;53.114;7.060;2022-07-23T12:32:45;2.50;;;1.40;;
53781;SDS011;39692;53.114;7.060;2022-07-23T12:35:11;2.92;;;1.20;;
53781;SDS011;39692;53.114;7.060;2022-07-23T12:37:38;4.22;;;1.05;;
53781;SDS011;39692;53.114;7.060;2022-07-23T12:42:54;3.42;;;1.35;;
53781;SDS011;39692;53.114;7.060;2022-07-23T12:45:20;6.30;;;1.25;;
53781;SDS011;39692;53.114;7.060;2022-07-23T12:50:53;3.55;;;1.30;;
53781;SDS011;39692;53.114;7.060;2022-07-23T12:53:12;3.33;;;1.42;;
53781;SDS011;39692;53.114;7.060;2022-07-23T12:55:39;4.28;;;1.60;;
53781;SDS011;39692;53.114;7.060;2022-07-23T12:58:06;2.15;;;1.13;;
53781;SDS011;39692;53.114;7.060;2022-07-23T13:00:48;3.03;;;1.35;;
53781;SDS011;39692;53.114;7.060;2022-07-23T13:03:22;4.07;;;1.45;;
53781;SDS011;39692;53.114;7.060;2022-07-23T13:05:48;2.80;;;1.20;;
53781;SDS011;39692;53.114;7.060;2022-07-23T13:08:14;2.50;;;1.30;;
53781;SDS011;39692;53.114;7.060;2022-07-23T13:10:40;2.75;;;1.33;;
53781;SDS011;39692;53.114;7.060;2022-07-23T13:13:10;3.75;;;1.58;;
53781;SDS011;39692;53.114;7.060;2022-07-23T13:15:36;2.63;;;1.52;;
53781;SDS011;39692;53.114;7.060;2022-07-23T13:18:02;3.03;;;1.58;;
53781;SDS011;39692;53.114;7.060;2022-07-23T13:20:28;2.30;;;1.30;;
53781;SDS011;39692;53.114;7.060;2022-07-23T13:22:56;4.28;;;1.67;;
53781;SDS011;39692;53.114;7.060;2022-07-23T13:25:22;3.20;;;1.40;;
53781;SDS011;39692;53.114;7.060;2022-07-23T13:27:48;2.72;;;1.55;;
53781;SDS011;39692;53.114;7.060;2022-07-23T13:30:15;3.28;;;1.40;;
53781;SDS011;39692;53.114;7.060;2022-07-23T13:32:41;2.55;;;1.40;;
53781;SDS011;39692;53.114;7.060;2022-07-23T13:35:08;3.65;;;1.63;;
53781;SDS011;39692;53.114;7.060;2022-07-23T13:37:34;3.38;;;1.60;;
53781;SDS011;39692;53.114;7.060;2022-07-23T13:40:00;2.10;;;1.17;;
53781;SDS011;39692;53.114;7.060;2022-07-23T13:42:27;2.85;;;1.70;;
53781;SDS011;39692;53.114;7.060;2022-07-23T13:44:53;5.15;;;1.52;;
53781;SDS011;39692;53.114;7.060;2022-07-23T13:47:19;4.22;;;1.50;;
53781;SDS011;39692;53.114;7.060;2022-07-23T13:49:45;2.33;;;1.48;;
53781;SDS011;39692;53.114;7.060;2022-07-23T13:52:11;2.90;;;1.65;;
53781;SDS011;39692;53.114;7.060;2022-07-23T13:54:37;3.00;;;1.60;;
53781;SDS011;39692;53.114;7.060;2022-07-23T13:57:03;3.33;;;1.58;;
53781;SDS011;39692;53.114;7.060;2022-07-23T13:59:29;2.65;;;1.58;;
53781;SDS011;39692;53.114;7.060;2022-07-23T14:01:55;4.90;;;1.83;;
53781;SDS011;39692;53.114;7.060;2022-07-23T14:04:21;3.30;;;1.52;;
53781;SDS011;39692;53.114;7.060;2022-07-23T14:06:48;3.65;;;1.70;;
53781;SDS011;39692;53.114;7.060;2022-07-23T14:09:14;3.45;;;1.70;;
53781;SDS011;39692;53.114;7.060;2022-07-23T14:11:40;3.00;;;1.42;;
53781;SDS011;39692;53.114;7.060;2022-07-23T14:14:06;4.47;;;1.80;;
53781;SDS011;39692;53.114;7.060;2022-07-23T14:16:32;4.57;;;1.40;;
53781;SDS011;39692;53.114;7.060;2022-07-23T14:18:58;4.55;;;1.48;;
53781;SDS011;39692;53.114;7.060;2022-07-23T14:21:24;3.78;;;1.60;;
53781;SDS011;39692;53.114;7.060;2022-07-23T14:23:50;2.97;;;1.30;;
53781;SDS011;39692;53.114;7.060;2022-07-23T14:26:16;4.40;;;1.67;;
53781;SDS011;39692;53.114;7.060;2022-07-23T14:28:42;3.88;;;1.80;;
53781;SDS011;39692;53.114;7.060;2022-07-23T14:31:08;1.83;;;1.30;;
53781;SDS011;39692;53.114;7.060;2022-07-23T14:33:34;3.05;;;1.42;;
53781;SDS011;39692;53.114;7.060;2022-07-23T14:36:00;4.97;;;1.52;;
53781;SDS011;39692;53.114;7.060;2022-07-23T14:38:26;4.85;;;1.45;;
53781;SDS011;39692;53.114;7.060;2022-07-23T14:40:52;4.25;;;1.40;;
53781;SDS011;39692;53.114;7.060;2022-07-23T14:43:18;2.38;;;1.30;;
53781;SDS011;39692;53.114;7.060;2022-07-23T14:45:44;2.20;;;1.00;;
53781;SDS011;39692;53.114;7.060;2022-07-23T14:48:10;2.13;;;1.40;;
53781;SDS011;39692;53.114;7.060;2022-07-23T14:50:36;3.30;;;1.45;;
53781;SDS011;39692;53.114;7.060;2022-07-23T14:53:02;1.80;;;1.13;;
53781;SDS011;39692;53.114;7.060;2022-07-23T14:55:30;2.25;;;1.20;;
53781;SDS011;39692;53.114;7.060;2022-07-23T14:57:56;3.15;;;1.35;;
53781;SDS011;39692;53.114;7.060;2022-07-23T15:00:22;4.03;;;1.60;;
53781;SDS011;39692;53.114;7.060;2022-07-23T15:02:48;3.30;;;1.30;;
53781;SDS011;39692;53.114;7.060;2022-07-23T15:05:14;1.98;;;1.25;;
53781;SDS011;39692;53.114;7.060;2022-07-23T15:07:40;2.83;;;1.23;;
53781;SDS011;39692;53.114;7.060;2022-07-23T15:10:06;2.33;;;1.35;;
53781;SDS011;39692;53.114;7.060;2022-07-23T15:12:33;3.55;;;1.30;;
53781;SDS011;39692;53.114;7.060;2022-07-23T15:14:59;2.05;;;1.25;;
53781;SDS011;39692;53.114;7.060;2022-07-23T15:17:25;3.28;;;1.58;;
53781;SDS011;39692;53.114;7.060;2022-07-23T15:19:51;3.22;;;1.55;;
53781;SDS011;39692;53.114;7.060;2022-07-23T15:22:17;4.50;;;1.55;;
53781;SDS011;39692;53.114;7.060;2022-07-23T15:24:43;3.33;;;1.45;;